createdAt,value
2023-03-26T00:01:56.612Z,8.96
2023-03-26T00:05:21.932Z,8.98
2023-03-26T00:08:47.190Z,8.98
2023-03-26T00:12:12.557Z,8.96
2023-03-26T00:15:37.735Z,8.93
2023-03-26T00:19:03.071Z,8.91
2023-03-26T00:22:28.261Z,8.85
2023-03-26T00:25:53.712Z,8.8
2023-03-26T00:29:18.899Z,8.78
2023-03-26T00:32:44.130Z,8.75
2023-03-26T00:36:09.427Z,8.73
2023-03-26T00:39:34.622Z,8.72
2023-03-26T00:42:59.896Z,8.7
2023-03-26T00:46:25.143Z,8.67
2023-03-26T00:49:50.351Z,8.61
2023-03-26T00:53:15.601Z,8.56
2023-03-26T00:56:40.882Z,8.53
2023-03-26T01:00:06.168Z,8.51
2023-03-26T01:03:31.551Z,8.51
2023-03-26T01:06:56.675Z,8.48
2023-03-26T01:10:21.990Z,8.47
2023-03-26T01:13:47.327Z,8.47
2023-03-26T01:17:12.576Z,8.46
2023-03-26T01:20:37.877Z,8.43
2023-03-26T01:24:03.098Z,8.43
2023-03-26T01:27:28.346Z,8.42
2023-03-26T01:30:53.641Z,8.41
2023-03-26T01:34:18.952Z,8.38
2023-03-26T01:37:44.256Z,8.41
2023-03-26T01:41:09.522Z,8.4
2023-03-26T01:44:34.783Z,8.37
2023-03-26T01:48:00.032Z,8.37
2023-03-26T01:51:25.265Z,8.38
2023-03-26T01:54:50.519Z,8.4
2023-03-26T01:58:15.748Z,8.42
2023-03-26T02:01:41.055Z,8.41
2023-03-26T02:05:06.385Z,8.37
2023-03-26T02:08:31.654Z,8.4
2023-03-26T02:11:56.947Z,8.43
2023-03-26T02:15:22.184Z,8.49
2023-03-26T02:18:47.483Z,8.57
2023-03-26T02:22:12.681Z,8.6
2023-03-26T02:25:37.958Z,8.61
2023-03-26T02:29:03.252Z,8.64
2023-03-26T02:32:29.313Z,8.68
2023-03-26T02:35:53.990Z,8.74
2023-03-26T02:39:18.924Z,8.75
2023-03-26T02:42:44.213Z,8.76
2023-03-26T02:46:09.557Z,8.8
2023-03-26T02:49:34.736Z,8.83
2023-03-26T02:52:59.997Z,8.84
2023-03-26T02:56:25.278Z,8.83
2023-03-26T02:59:50.508Z,8.82
2023-03-26T03:03:15.787Z,8.81
2023-03-26T03:06:40.992Z,8.81
2023-03-26T03:10:06.246Z,8.81
2023-03-26T03:13:31.481Z,8.82
2023-03-26T03:16:56.749Z,8.84
2023-03-26T03:20:22.103Z,8.9
2023-03-26T03:23:47.311Z,8.93
2023-03-26T03:27:12.537Z,8.94
2023-03-26T03:30:37.819Z,8.93
2023-03-26T03:34:03.910Z,8.88
2023-03-26T03:37:29.168Z,8.83
2023-03-26T03:40:54.409Z,8.82
2023-03-26T03:44:19.719Z,8.82
2023-03-26T03:47:45.059Z,8.82
2023-03-26T03:51:10.302Z,8.8
2023-03-26T03:54:35.574Z,8.82
2023-03-26T03:58:00.835Z,8.85
2023-03-26T04:01:26.073Z,8.89
2023-03-26T04:04:51.378Z,8.89
2023-03-26T04:08:16.622Z,8.85
2023-03-26T04:11:41.961Z,8.87
2023-03-26T04:15:07.183Z,8.82
2023-03-26T04:18:32.494Z,8.8
2023-03-26T04:21:57.806Z,8.77
2023-03-26T04:25:23.051Z,8.81
2023-03-26T04:28:48.369Z,8.86
2023-03-26T04:32:13.580Z,8.9
2023-03-26T04:35:38.917Z,8.93
2023-03-26T04:39:04.131Z,8.94
2023-03-26T04:42:29.396Z,8.97
2023-03-26T04:45:54.814Z,9.05
2023-03-26T04:49:19.965Z,9.11
2023-03-26T04:52:45.550Z,9.18
2023-03-26T04:56:10.528Z,9.19
2023-03-26T04:59:35.772Z,9.16
2023-03-26T05:03:01.087Z,9.18
2023-03-26T05:06:29.077Z,9.21
2023-03-26T05:09:54.330Z,9.24
2023-03-26T05:13:19.585Z,9.28
2023-03-26T05:16:44.867Z,9.31
2023-03-26T05:20:10.163Z,9.3
2023-03-26T05:23:35.436Z,9.25
2023-03-26T05:27:00.680Z,9.18
2023-03-26T05:30:25.964Z,9.15
2023-03-26T05:33:51.236Z,9.16
2023-03-26T05:37:16.462Z,9.12
2023-03-26T05:40:41.736Z,9.13
2023-03-26T05:44:06.977Z,9.08
2023-03-26T05:47:32.214Z,9.06
2023-03-26T05:50:57.689Z,8.98
2023-03-26T05:54:22.727Z,8.91
2023-03-26T05:57:47.946Z,8.87
2023-03-26T06:01:13.176Z,8.87
2023-03-26T06:04:38.522Z,8.87
2023-03-26T06:08:03.772Z,8.87
2023-03-26T06:11:29.140Z,8.95
2023-03-26T06:14:54.429Z,9.06
2023-03-26T06:18:19.755Z,9.17
2023-03-26T06:21:45.027Z,9.22
2023-03-26T06:25:10.525Z,9.25
2023-03-26T06:28:35.826Z,9.26
2023-03-26T06:32:09.340Z,9.34
2023-03-26T06:35:26.529Z,9.4
2023-03-26T06:38:51.824Z,9.46
2023-03-26T06:42:17.179Z,9.52
2023-03-26T06:45:42.504Z,9.58
2023-03-26T06:49:07.827Z,9.67
2023-03-26T06:52:33.042Z,9.72
2023-03-26T06:55:58.643Z,9.71
2023-03-26T06:59:23.834Z,9.72
2023-03-26T07:02:49.124Z,9.74
2023-03-26T07:06:14.288Z,9.8
2023-03-26T07:09:39.559Z,9.85
2023-03-26T07:13:04.932Z,9.85
2023-03-26T07:16:30.201Z,9.93
2023-03-26T07:19:55.442Z,9.96
2023-03-26T07:23:20.925Z,10
2023-03-26T07:26:45.956Z,10.04
2023-03-26T07:30:11.221Z,10.09
2023-03-26T07:33:36.513Z,10.14
2023-03-26T07:37:01.792Z,10.17
2023-03-26T07:40:27.016Z,10.18
2023-03-26T07:43:52.294Z,10.23
2023-03-26T07:47:17.584Z,10.23
2023-03-26T07:50:42.862Z,10.25
2023-03-26T07:54:08.186Z,10.28
2023-03-26T07:57:33.506Z,10.31
2023-03-26T08:00:58.802Z,10.3
2023-03-26T08:04:24.960Z,10.26
2023-03-26T08:07:49.368Z,10.23
2023-03-26T08:11:14.699Z,10.21
2023-03-26T08:14:39.988Z,10.21
2023-03-26T08:18:05.336Z,10.18
2023-03-26T08:21:30.686Z,10.14
2023-03-26T08:24:55.985Z,10.14
2023-03-26T08:28:21.325Z,10.16
2023-03-26T08:31:46.646Z,10.16
2023-03-26T08:35:11.948Z,10.23
2023-03-26T08:38:37.275Z,10.36
2023-03-26T08:42:02.602Z,10.45
2023-03-26T08:45:27.951Z,10.5
2023-03-26T08:48:53.260Z,10.55
2023-03-26T08:52:18.592Z,10.56
2023-03-26T08:55:43.921Z,10.6
2023-03-26T08:59:09.263Z,10.62
2023-03-26T09:02:34.643Z,10.7
2023-03-26T09:05:59.950Z,10.8
2023-03-26T09:09:25.249Z,10.87
2023-03-26T09:12:50.616Z,10.97
2023-03-26T09:16:16.027Z,11.05
2023-03-26T09:19:41.346Z,10.97
2023-03-26T09:23:06.724Z,10.89
2023-03-26T09:26:32.073Z,10.87
2023-03-26T09:29:57.455Z,10.88
2023-03-26T09:33:22.789Z,10.88
2023-03-26T09:36:48.191Z,10.82
2023-03-26T09:40:13.674Z,10.81
2023-03-26T09:43:38.904Z,10.79
2023-03-26T09:47:04.254Z,10.81
2023-03-26T09:50:29.581Z,10.8
2023-03-26T09:53:54.921Z,10.79
2023-03-26T09:57:20.277Z,10.82
2023-03-26T10:00:45.576Z,10.88
2023-03-26T10:04:10.916Z,10.95
2023-03-26T10:07:36.251Z,10.93
2023-03-26T10:11:01.609Z,10.95
2023-03-26T10:14:26.917Z,10.99
2023-03-26T10:17:52.303Z,11.01
2023-03-26T10:21:17.613Z,11.01
2023-03-26T10:24:42.931Z,11
2023-03-26T10:28:08.320Z,10.94
2023-03-26T10:31:33.630Z,10.92
2023-03-26T10:34:59.009Z,10.9
2023-03-26T10:38:24.335Z,10.8
2023-03-26T10:41:49.694Z,10.78
2023-03-26T10:45:15.206Z,10.74
2023-03-26T10:48:40.428Z,10.69
2023-03-26T10:52:05.771Z,10.65
2023-03-26T10:55:31.137Z,10.6
2023-03-26T10:58:56.497Z,10.57
2023-03-26T11:02:29.526Z,10.58
2023-03-26T11:05:47.239Z,10.61
2023-03-26T11:09:12.567Z,10.65
2023-03-26T11:12:37.974Z,10.71
2023-03-26T11:16:03.364Z,10.78
2023-03-26T11:19:28.733Z,10.85
2023-03-26T11:22:54.084Z,10.88
2023-03-26T11:26:19.421Z,10.84
2023-03-26T11:29:44.772Z,10.82
2023-03-26T11:33:10.072Z,10.75
2023-03-26T11:36:35.451Z,10.72
2023-03-26T11:40:00.836Z,10.67
2023-03-26T11:43:26.183Z,10.57
2023-03-26T11:46:51.525Z,10.49
2023-03-26T11:50:16.828Z,10.39
2023-03-26T11:53:42.160Z,10.14
2023-03-26T11:57:07.534Z,9.96
2023-03-26T12:00:32.788Z,9.88
2023-03-26T12:03:58.252Z,9.82
2023-03-26T12:07:23.555Z,9.64
2023-03-26T12:10:48.947Z,9.53
2023-03-26T12:14:14.265Z,9.51
2023-03-26T12:17:39.632Z,9.53
2023-03-26T12:21:05.005Z,9.44
2023-03-26T12:24:30.332Z,9.38
2023-03-26T12:27:55.668Z,9.42
2023-03-26T12:31:21.001Z,9.47
2023-03-26T12:34:46.294Z,9.53
2023-03-26T12:38:11.614Z,9.47
2023-03-26T12:42:26.208Z,9.38
2023-03-26T12:45:02.414Z,9.33
2023-03-26T12:48:27.556Z,9.26
2023-03-26T12:51:52.841Z,9.23
2023-03-26T12:55:18.140Z,9.22
2023-03-26T12:58:43.430Z,9.23
2023-03-26T13:02:08.778Z,9.18
2023-03-26T13:05:34.093Z,9.1
2023-03-26T13:08:59.397Z,9.14
2023-03-26T13:12:24.699Z,9.2
2023-03-26T13:15:52.012Z,9.19
2023-03-26T13:19:15.317Z,9.17
2023-03-26T13:22:40.631Z,9.24
2023-03-26T13:26:05.922Z,9.39
2023-03-26T13:29:31.231Z,9.47
2023-03-26T13:32:56.586Z,9.65
2023-03-26T13:36:24.119Z,9.82
2023-03-26T13:39:47.478Z,9.94
2023-03-26T13:43:12.788Z,9.98
2023-03-26T13:46:38.134Z,10.02
2023-03-26T13:50:03.398Z,10.03
2023-03-26T13:53:28.706Z,10.01
2023-03-26T13:56:53.991Z,9.93
2023-03-26T14:00:19.267Z,9.92
2023-03-26T14:03:44.592Z,9.85
2023-03-26T14:07:09.861Z,9.8
2023-03-26T14:10:35.142Z,9.68
2023-03-26T14:14:00.403Z,9.59
2023-03-26T14:17:25.700Z,9.64
2023-03-26T14:20:50.966Z,9.72
2023-03-26T14:24:16.243Z,9.76
2023-03-26T14:27:41.550Z,9.79
2023-03-26T14:31:06.837Z,9.76
2023-03-26T14:34:32.099Z,9.77
2023-03-26T14:37:57.355Z,9.76
2023-03-26T14:41:22.646Z,9.73
2023-03-26T14:44:49.023Z,9.63
2023-03-26T14:48:13.210Z,9.65
2023-03-26T14:51:38.489Z,9.67
2023-03-26T14:55:03.790Z,9.68
2023-03-26T14:58:29.059Z,9.73
2023-03-26T15:01:54.391Z,9.75
2023-03-26T15:05:19.628Z,9.77
2023-03-26T15:38:47.667Z,7.54
2023-03-26T15:42:12.943Z,8.55
2023-03-26T15:45:38.213Z,8.88
2023-03-26T15:49:03.607Z,9.18
2023-03-26T15:52:29.018Z,9.41
2023-03-26T15:55:54.452Z,9.59
2023-03-26T15:59:21.244Z,9.7
2023-03-26T16:02:46.718Z,9.81
2023-03-26T16:06:12.225Z,9.93
2023-03-26T16:09:37.512Z,10.05
2023-03-26T16:13:02.901Z,10.17
2023-03-26T16:16:28.244Z,10.29
2023-03-26T16:19:53.601Z,10.37
2023-03-26T16:23:18.926Z,10.42
2023-03-26T16:26:44.277Z,10.47
2023-03-26T16:30:09.915Z,10.49
2023-03-26T16:33:35.260Z,10.54
2023-03-26T16:37:00.561Z,10.58
2023-03-26T16:40:25.993Z,10.57
2023-03-26T16:43:51.402Z,10.49
2023-03-26T16:47:16.802Z,10.43
2023-03-26T16:50:42.159Z,10.34
2023-03-26T16:54:07.525Z,10.3
2023-03-26T16:57:32.867Z,10.27
2023-03-26T17:00:58.187Z,10.21
2023-03-26T17:04:23.568Z,10.21
2023-03-26T17:07:48.892Z,10.18
2023-03-26T17:11:14.295Z,10.18
2023-03-26T17:14:41.189Z,10.2
2023-03-26T17:18:05.024Z,10.2
2023-03-26T17:21:30.414Z,10.17
2023-03-26T17:24:55.890Z,10.13
2023-03-26T17:28:21.370Z,10.12
2023-03-26T17:31:46.952Z,10.11
2023-03-26T17:35:13.932Z,10.06
2023-03-26T17:38:38.011Z,10.04
2023-03-26T17:42:03.503Z,9.99
2023-03-26T17:45:29.012Z,9.95
2023-03-26T17:48:56.428Z,9.96
2023-03-26T17:52:23.153Z,9.96
2023-03-26T17:55:50.100Z,9.94
2023-03-26T17:59:14.209Z,9.91
2023-03-26T18:02:39.687Z,9.89
2023-03-26T18:06:05.108Z,9.88
2023-03-26T18:09:30.655Z,9.89
2023-03-26T18:12:56.249Z,9.95
2023-03-26T18:16:21.752Z,9.97
2023-03-26T18:19:47.239Z,10
2023-03-26T18:23:12.878Z,10.01
2023-03-26T18:26:38.578Z,9.99
2023-03-26T18:30:04.259Z,9.99
2023-03-26T18:33:29.844Z,10.02
2023-03-26T18:36:55.416Z,9.99
2023-03-26T18:40:21.034Z,10.01
2023-03-26T18:43:46.624Z,9.99
2023-03-26T18:47:12.222Z,10
2023-03-26T18:50:37.749Z,10
2023-03-26T18:54:03.379Z,10.01
2023-03-26T18:57:28.957Z,10.01
2023-03-26T19:00:54.719Z,9.97
2023-03-26T19:04:19.951Z,9.95
2023-03-26T19:07:45.496Z,9.95
2023-03-26T19:11:11.017Z,9.97
2023-03-26T19:14:36.546Z,10
2023-03-26T19:18:02.126Z,10.02
2023-03-26T19:21:27.585Z,10.04
2023-03-26T19:24:53.084Z,10.03
2023-03-26T19:28:18.789Z,10
2023-03-26T19:31:44.262Z,9.99
2023-03-26T19:35:09.801Z,9.98
2023-03-26T19:38:35.317Z,9.98
2023-03-26T19:42:00.784Z,9.97
2023-03-26T19:45:26.308Z,9.96
2023-03-26T19:48:51.889Z,9.98
2023-03-26T19:52:17.448Z,9.96
2023-03-26T19:55:42.995Z,9.92
2023-03-26T19:59:08.481Z,9.86
2023-03-26T20:02:33.855Z,9.76
2023-03-26T20:05:59.054Z,9.56
2023-03-26T20:09:24.316Z,9.31
2023-03-26T20:12:49.581Z,9.09
2023-03-26T20:16:14.821Z,8.92
2023-03-26T20:19:40.006Z,8.76
2023-03-26T20:23:05.258Z,8.64
2023-03-26T20:26:30.505Z,8.54
2023-03-26T20:29:55.786Z,8.47
2023-03-26T20:33:21.069Z,8.36
2023-03-26T20:36:46.380Z,8.26
2023-03-26T20:40:11.571Z,8.2
2023-03-26T20:43:36.826Z,8.12
2023-03-26T20:47:02.104Z,8.09
2023-03-26T20:50:27.878Z,8.06
2023-03-26T20:53:52.562Z,8.03
2023-03-26T20:57:17.881Z,8.05
2023-03-26T21:00:43.134Z,8.09
2023-03-26T21:04:08.554Z,8.12
2023-03-26T21:07:33.773Z,8.16
2023-03-26T21:10:58.999Z,8.2
2023-03-26T21:14:24.251Z,8.22
2023-03-26T21:17:49.550Z,8.24
2023-03-26T21:21:20.989Z,8.29
2023-03-26T21:24:40.015Z,8.34
2023-03-26T21:28:05.248Z,8.39
2023-03-26T21:31:30.565Z,8.42
2023-03-26T21:34:58.896Z,8.46
2023-03-26T21:38:20.997Z,8.47
2023-03-26T21:41:46.219Z,8.48
2023-03-26T21:45:11.476Z,8.51
2023-03-26T21:48:36.700Z,8.51
2023-03-26T21:52:01.977Z,8.53
2023-03-26T21:55:27.292Z,8.52
2023-03-26T21:58:52.501Z,8.48
2023-03-26T22:02:17.734Z,8.42
2023-03-26T22:05:43.009Z,8.38
2023-03-26T22:09:08.244Z,8.28
2023-03-26T22:12:33.562Z,8.17
2023-03-26T22:15:58.871Z,8.11
2023-03-26T22:19:24.062Z,8.06
2023-03-26T22:22:49.312Z,7.96
2023-03-26T22:26:14.595Z,7.86
2023-03-26T22:29:39.869Z,7.73
2023-03-26T22:33:05.137Z,7.63
2023-03-26T22:36:30.362Z,7.53
2023-03-26T22:39:55.642Z,7.49
2023-03-26T22:43:20.999Z,7.43
2023-03-26T22:46:46.288Z,7.31
2023-03-26T22:50:11.516Z,7.22
2023-03-26T22:53:36.757Z,7.15
2023-03-26T22:57:02.066Z,7.08
2023-03-26T23:00:27.299Z,7.01
2023-03-26T23:03:52.597Z,6.95
2023-03-26T23:07:17.740Z,6.87
2023-03-26T23:10:43.013Z,6.83
2023-03-26T23:14:08.264Z,6.85
2023-03-26T23:17:33.502Z,6.87
2023-03-26T23:20:58.747Z,6.88
2023-03-26T23:24:23.949Z,6.82
2023-03-26T23:27:49.159Z,6.71
2023-03-26T23:31:14.410Z,6.68
2023-03-26T23:34:39.632Z,6.65
2023-03-26T23:38:04.895Z,6.65
2023-03-26T23:41:30.103Z,6.74
2023-03-26T23:44:55.312Z,6.88
2023-03-26T23:48:20.625Z,6.96
2023-03-26T23:51:45.835Z,6.93
2023-03-26T23:55:11.104Z,6.9
2023-03-26T23:58:36.314Z,6.84
